Aérodrome :
LOGIN :

S'inscrire | Disclaimer

   EN    FR    IT 

 










Légende :    VFR   VFR Marginal   IFR   IFR Intensif   IFR Très Intensif
Visi : 
Plafond : 
>= 8 km
>= 3000ft
5 à 8 km
1000 à 3000 ft
1500m à 5 km
500 à 1000 ft
800 à 1500m
200 à 500 ft
< 800m
< 200 ft
Symboles :   Orages  Brouillard  Fortes neiges  Fortes précipitations  Vent > 20 kt
SIGMETs :   Divers  Orages  Givrage  Turbulence  Onde Orograph.  Cendres Volcan.







- Altitude de l'aérodrome : 247 ft
- Code IATA : BLL


EKBI - Billund

DERNIER METAR :
  • 171150Z AUTO 19001KT 9999NDV NCD 01/01 Q1018 R09/35//95

METARs EXPIRÉS :
  • 171120Z AUTO 19001KT 6000NDV NCD M00/M00 Q1018 R09/35//95
  • 171050Z AUTO 11001KT 5000NDV NCD M01/M01 Q1018 R09/35//95
  • 171020Z AUTO 17001KT 5000NDV R09/P1500N R27/1300N NCD M02/M02 Q1018 R09/35//95
  • 170950Z 00000KT 3000 R09/P1500N R27/0900U BR SKC M03/M04 Q1018 R09/35//95
  • 170920Z 00000KT 1500 R09/P1500U R27/0450U BR SKC M04/M05 Q1018 R09/35//95

TAF TAF EKBI
Valide du 17 à 12h jusqu'au 18 à 12h UTC


171059Z 1712/1812 VRB05KT 9999 SCT020
TEMPO 1712/1722 2500 BR BKN012
BECMG 1716/1718 18010KT
BECMG 1722/1724 1200 SNRA BKN004
TEMPO 1800/1806 9999 NSW BKN012
BECMG 1806/1808 4000 BR BKN012
Pas de NOTAMs connus pour ce terrain.



MET'MAP, la Météo Aéronautique d'un coup d'oeil ! - Copyright ORBIFLY Décembre 2007 - Disclaimer

ORBIFLY MET'MAP TEAM :

Programmation & Développement : Alexandra Zaïnal
Conception & Développement : Baudouin d'Aumeries
Co-Programmation & Développement : Marc-Olivier Méhu
Soutien technique & logistique : Manuel Goepfert

Contact : metmap@orbifly.com




SOURCES & CREDITS :

   NOAA